This is the latest recevied weather packets stored in our database for station/object DL1MMS-10. If no packets are shown the sender has not sent any weather packets the latest 10 day(s).
| Time | Temp. | Humidity | Pressure | Rain* | Wind** | Luminosity | Snow |
|---|---|---|---|---|---|---|---|
| 1778082869 | 11.67° C | 67% | 1008.9 hPa | 0 mm | - | - | - |
| 1778082568 | 12.22° C | 65% | 1008.6 hPa | 0 mm | - | - | - |
| 1778082268 | 12.78° C | 62% | 1008.5 hPa | 0 mm | - | - | - |
| 1778081968 | 14.44° C | 59% | 1008.5 hPa | 0 mm | - | - | - |
| 1778081667 | 15.56° C | 57% | 1008.5 hPa | 0 mm | - | - | - |
| 1778081367 | 16.11° C | 55% | 1008.3 hPa | 0 mm | - | - | - |
| 1778081067 | 18.33° C | 53% | 1008.4 hPa | 0 mm | - | - | - |
| 1778080767 | 20.56° C | 54% | 1007.6 hPa | 0 mm | - | - | - |
| 1778080466 | 21.67° C | 53% | 1007.5 hPa | 0 mm | - | - | - |
| 1778080166 | 21.67° C | 51% | 1007.4 hPa | 0 mm | - | - | - |
| 1778079866 | 23.89° C | 46% | 1007.3 hPa | 0 mm | - | - | - |
| 1778079566 | 26.11° C | 46% | 1007.3 hPa | 0 mm | - | - | - |
| 1778079265 | 26.67° C | 48% | 1007.4 hPa | 0 mm | - | - | - |
| 1778078965 | 25° C | 52% | 1007.4 hPa | 0 mm | - | - | - |
| 1778078665 | 22.78° C | 58% | 1007.2 hPa | 0 mm | - | - | - |
| 1778078364 | 20.56° C | 62% | 1007.3 hPa | 0 mm | - | - | - |
| 1778078064 | 18.89° C | 62% | 1007.5 hPa | 0 mm | - | - | - |
| 1778077764 | 18.89° C | 62% | 1007.5 hPa | 0 mm | - | - | - |
| 1778077463 | 18.89° C | 62% | 1007.3 hPa | 0 mm | - | - | - |
| 1778077163 | 19.44° C | 63% | 1007.3 hPa | 0 mm | - | - | - |
| 1778076863 | 18.89° C | 62% | 1007.3 hPa | 0 mm | - | - | - |
| 1778076563 | 18.89° C | 64% | 1007.2 hPa | 0 mm | - | - | - |
| 1778076262 | 18.89° C | 69% | 1007.2 hPa | 0 mm | - | - | - |
| 1778075962 | 17.22° C | 73% | 1007.3 hPa | 0 mm | - | - | - |
| 1778075662 | 16.67° C | 72% | 1007.4 hPa | 0 mm | - | - | - |
* Rain latest hour (hover to see other rain measurements)
** Current wind speed in m/s (hover to see current wind gust speed)